To NAV CANADA Home Page Login to a new session Search on AWWS site Feedback and Comments Disclaimer Vers la page française équivalente Tips FAQ What's new on the site To the Forecasts and Observations / NOTAM section To "File a Flight Plan" website Publications and other links Update of the User's profile FIC Telephone Numbers My Weather Data Folder Route Weather Data Regional Weather Data Local Weather Data To the Forecasts and Observations / NOTAM section
Request Generated 07/04/2015 at 09:23:34 UTC . Weather information available at that time is displayed.

METAR/TAF

RANKIN INLET/NU    

METAR CYRT 040900Z 20004KT 15SM FEW250 04/02 A2998 RMK CI2 SLP154=
METAR CYRT 040800Z 20006KT 15SM SKC 04/02 A2998 RMK SLP154=
METAR CYRT 040700Z 17007KT 15SM SKC 03/01 A2998 RMK SLP154=

TAF CYRT 040538Z 0406/0418 17012KT P6SM FEW250
RMK NXT FCST BY 041200Z=
Your time UTC time
Weather data provided by Environment Canada and NAV CANADA